createdAt,value
2023-01-23T00:02:49.583Z,89.41
2023-01-23T00:07:52.790Z,89.27
2023-01-23T00:12:57.765Z,89.13
2023-01-23T00:18:00.432Z,89.52
2023-01-23T00:23:03.129Z,89.85
2023-01-23T00:28:06.125Z,89.74
2023-01-23T00:33:08.956Z,89.62
2023-01-23T00:38:11.653Z,89.42
2023-01-23T00:43:14.445Z,89.15
2023-01-23T00:48:17.658Z,89.43
2023-01-23T00:53:20.944Z,89.53
2023-01-23T00:58:23.725Z,89.75
2023-01-23T01:03:26.464Z,89.69
2023-01-23T01:08:29.450Z,89.35
2023-01-23T01:13:32.512Z,89.17
2023-01-23T01:18:35.234Z,89.23
2023-01-23T01:23:39.569Z,89.29
2023-01-23T01:28:42.539Z,89.31
2023-01-23T01:33:45.656Z,89.40
2023-01-23T01:38:48.704Z,89.76
2023-01-23T01:43:53.398Z,89.87
2023-01-23T01:49:01.828Z,89.50
2023-01-23T01:54:16.705Z,89.14
2023-01-23T01:59:21.839Z,89.16
2023-01-23T02:04:24.876Z,89.47
2023-01-23T02:09:27.783Z,89.60
2023-01-23T02:14:30.847Z,89.53
2023-01-23T02:19:40.443Z,89.73
2023-01-23T02:24:50.784Z,89.55
2023-01-23T02:29:56.336Z,89.43
2023-01-23T02:35:04.262Z,89.35
2023-01-23T02:40:08.131Z,89.24
2023-01-23T02:45:11.020Z,89.92
2023-01-23T02:50:13.748Z,90.34
2023-01-23T02:55:17.896Z,90.21
2023-01-23T03:00:22.366Z,89.63
2023-01-23T03:05:25.312Z,89.31
2023-01-23T03:10:29.042Z,89.38
2023-01-23T03:15:31.750Z,89.66
2023-01-23T03:20:41.670Z,89.98
2023-01-23T03:25:47.172Z,89.74
2023-01-23T03:30:49.884Z,89.79
2023-01-23T03:35:52.772Z,89.49
2023-01-23T03:41:14.195Z,89.42
2023-01-23T03:46:16.891Z,89.54
2023-01-23T03:51:19.649Z,89.66
2023-01-23T03:56:22.521Z,89.46
2023-01-23T04:01:26.071Z,89.80
2023-01-23T04:06:28.851Z,89.88
2023-01-23T04:11:31.742Z,89.69
2023-01-23T04:16:34.453Z,89.47
2023-01-23T04:21:37.240Z,89.62
2023-01-23T04:26:40.046Z,90.23
2023-01-23T04:31:43.296Z,90.08
2023-01-23T04:36:45.992Z,89.81
2023-01-23T04:41:48.709Z,89.71
2023-01-23T04:46:54.153Z,89.40
2023-01-23T04:51:56.920Z,89.59
2023-01-23T04:56:59.584Z,89.68
2023-01-23T05:02:02.627Z,89.78
2023-01-23T05:07:05.415Z,89.85
2023-01-23T05:12:08.391Z,89.89
2023-01-23T05:17:11.083Z,89.65
2023-01-23T05:22:13.838Z,89.54
2023-01-23T05:27:16.626Z,89.13
2023-01-23T05:32:19.311Z,89.31
2023-01-23T05:37:25.440Z,89.86
2023-01-23T05:42:28.711Z,90.00
2023-01-23T05:47:31.438Z,89.79
2023-01-23T05:52:36.952Z,89.40
2023-01-23T05:57:39.679Z,89.55
2023-01-23T06:02:42.957Z,89.00
2023-01-23T06:07:45.865Z,89.23
2023-01-23T06:12:48.596Z,89.10
2023-01-23T06:17:51.318Z,89.32
2023-01-23T06:22:54.197Z,89.56
2023-01-23T06:27:56.898Z,89.36
2023-01-23T06:32:59.700Z,89.00
2023-01-23T06:38:02.394Z,89.26
2023-01-23T06:43:05.066Z,89.23
2023-01-23T06:48:07.901Z,89.04
2023-01-23T06:53:14.918Z,88.91
2023-01-23T06:58:17.709Z,89.36
2023-01-23T07:03:20.914Z,89.30
2023-01-23T07:08:23.712Z,89.06
2023-01-23T07:13:27.305Z,88.97
2023-01-23T07:18:30.571Z,88.78
2023-01-23T07:23:34.193Z,88.73
2023-01-23T07:28:37.999Z,88.76
2023-01-23T07:33:40.810Z,88.96
2023-01-23T07:38:43.569Z,89.04
2023-01-23T07:43:46.482Z,89.05
2023-01-23T07:48:49.175Z,88.90
2023-01-23T07:53:55.239Z,88.29
2023-01-23T07:58:57.992Z,88.02
2023-01-23T08:04:01.155Z,87.92
2023-01-23T08:09:06.548Z,87.96
2023-01-23T08:14:09.346Z,87.84
2023-01-23T08:19:12.249Z,88.14
2023-01-23T08:24:15.405Z,88.22
2023-01-23T08:29:18.165Z,87.78
2023-01-23T08:34:22.178Z,87.47
2023-01-23T08:39:24.925Z,86.82
2023-01-23T08:44:27.806Z,86.86
2023-01-23T08:49:30.597Z,86.93
2023-01-23T08:54:33.504Z,86.83
2023-01-23T08:59:36.183Z,86.86
2023-01-23T09:04:39.100Z,86.92
2023-01-23T09:09:41.806Z,86.81
2023-01-23T09:14:44.486Z,86.17
2023-01-23T09:19:47.202Z,86.04
2023-01-23T09:24:49.918Z,85.56
2023-01-23T09:29:52.800Z,85.27
2023-01-23T09:34:55.561Z,85.14
2023-01-23T09:39:58.304Z,85.46
2023-01-23T09:45:05.391Z,85.60
2023-01-23T09:50:18.764Z,85.45
2023-01-23T09:55:34.210Z,85.04
2023-01-23T10:00:36.955Z,84.78
2023-01-23T10:05:51.013Z,84.27
2023-01-23T10:11:04.252Z,84.39
2023-01-23T10:16:31.111Z,84.80
2023-01-23T10:21:54.769Z,84.59
2023-01-23T10:27:11.617Z,84.09
2023-01-23T10:38:00.797Z,82.93
2023-01-23T10:43:04.615Z,82.99
2023-01-23T10:48:32.602Z,82.90
2023-01-23T10:53:35.359Z,82.74
2023-01-23T10:58:42.782Z,83.00
2023-01-23T11:03:46.267Z,83.05
2023-01-23T11:08:57.313Z,82.72
2023-01-23T11:14:16.858Z,82.89
2023-01-23T11:19:22.613Z,82.61
2023-01-23T11:24:38.400Z,81.66
2023-01-23T11:29:53.780Z,82.24
2023-01-23T11:35:11.731Z,82.05
2023-01-23T11:40:19.667Z,81.92
2023-01-23T11:45:44.688Z,81.72
2023-01-23T11:50:55.805Z,81.60
2023-01-23T11:56:21.580Z,81.38
2023-01-23T12:02:06.459Z,81.47
2023-01-23T12:07:21.341Z,81.52
2023-01-23T12:12:44.893Z,81.47
2023-01-23T12:18:05.685Z,81.60
2023-01-23T12:23:27.353Z,81.54
2023-01-23T12:28:52.264Z,81.52
2023-01-23T12:34:02.243Z,81.46
2023-01-23T12:39:23.878Z,81.08
2023-01-23T12:44:29.688Z,80.98
2023-01-23T12:49:53.324Z,81.02
2023-01-23T12:55:23.101Z,81.24
2023-01-23T13:00:41.467Z,81.71
2023-01-23T13:05:59.374Z,81.17
2023-01-23T13:11:34.866Z,80.46
2023-01-23T13:16:47.020Z,80.41
2023-01-23T13:22:22.433Z,80.87
2023-01-23T13:27:50.507Z,80.83
2023-01-23T13:33:00.748Z,80.62
2023-01-23T13:38:29.432Z,81.10
2023-01-23T13:43:51.148Z,80.89
2023-01-23T14:22:05.046Z,82.19
2023-01-23T14:27:13.039Z,81.92
2023-01-23T14:32:27.889Z,81.96
2023-01-23T14:37:38.439Z,81.94
2023-01-23T14:42:41.183Z,82.08
2023-01-23T14:47:48.975Z,82.01
2023-01-23T14:52:59.577Z,82.11
2023-01-23T14:58:04.325Z,82.35
2023-01-23T15:03:08.498Z,82.65
2023-01-23T15:08:24.470Z,82.94
2023-01-23T15:13:51.073Z,83.01
2023-01-23T15:19:01.286Z,82.71
2023-01-23T15:24:28.069Z,82.57
2023-01-23T15:29:32.208Z,83.12
2023-01-23T15:34:34.949Z,83.40
2023-01-23T15:39:46.720Z,83.53
2023-01-23T15:44:50.221Z,83.72
2023-01-23T15:49:53.019Z,84.11
2023-01-23T15:55:01.214Z,84.41
2023-01-23T16:00:27.957Z,84.16
2023-01-23T16:05:34.874Z,84.09
2023-01-23T16:10:38.766Z,84.39
2023-01-23T16:15:41.952Z,84.51
2023-01-23T16:20:46.407Z,84.50
2023-01-23T16:25:49.735Z,85.21
2023-01-23T16:30:53.279Z,85.18
2023-01-23T16:35:56.632Z,85.40
2023-01-23T16:41:01.550Z,85.06
2023-01-23T16:46:04.415Z,84.92
2023-01-23T16:51:14.698Z,85.01
2023-01-23T16:56:21.812Z,84.97
2023-01-23T17:01:24.823Z,85.56
2023-01-23T17:06:27.880Z,85.92
2023-01-23T17:11:36.358Z,85.98
2023-01-23T17:16:39.503Z,86.05
2023-01-23T17:21:43.353Z,86.01
2023-01-23T17:26:46.281Z,86.06
2023-01-23T17:31:49.660Z,86.23
2023-01-23T17:36:54.527Z,85.78
2023-01-23T17:41:57.320Z,86.40
2023-01-23T17:47:00.012Z,86.63
2023-01-23T17:52:02.996Z,86.84
2023-01-23T17:57:05.930Z,86.86
2023-01-23T18:02:28.007Z,86.46
2023-01-23T18:07:31.200Z,86.94
2023-01-23T18:12:47.966Z,86.92
2023-01-23T18:18:20.217Z,86.76
2023-01-23T18:23:25.284Z,87.48
2023-01-23T18:28:34.441Z,87.84
2023-01-23T18:33:46.029Z,87.60
2023-01-23T18:39:11.510Z,87.29
2023-01-23T18:44:26.057Z,87.49
2023-01-23T18:49:32.942Z,87.60
2023-01-23T18:54:45.467Z,87.58
2023-01-23T19:00:15.916Z,87.56
2023-01-23T19:05:29.668Z,87.72
2023-01-23T19:10:48.706Z,87.67
2023-01-23T19:16:01.218Z,87.53
2023-01-23T19:21:26.937Z,87.89
2023-01-23T19:26:32.241Z,87.60
2023-01-23T19:31:38.692Z,88.33
2023-01-23T19:36:41.479Z,88.34
2023-01-23T19:41:44.170Z,88.53
2023-01-23T19:46:47.642Z,88.43
2023-01-23T19:51:50.413Z,88.43
2023-01-23T19:56:53.205Z,88.43
2023-01-23T20:01:56.108Z,88.08
2023-01-23T20:06:58.896Z,88.59
2023-01-23T20:12:01.596Z,88.69
2023-01-23T20:17:04.444Z,88.69
2023-01-23T20:22:07.306Z,88.53
2023-01-23T20:27:09.984Z,88.47
2023-01-23T20:32:12.696Z,88.02
2023-01-23T20:37:15.802Z,88.55
2023-01-23T20:42:18.922Z,89.10
2023-01-23T20:47:21.812Z,88.81
2023-01-23T20:52:43.335Z,89.02
2023-01-23T20:58:04.893Z,88.88
2023-01-23T21:03:07.621Z,88.97
2023-01-23T21:08:10.499Z,88.66
2023-01-23T21:13:15.679Z,88.88
2023-01-23T21:18:18.455Z,88.94
2023-01-23T21:23:21.464Z,89.36
2023-01-23T21:28:24.147Z,89.37
2023-01-23T21:33:26.973Z,89.02
2023-01-23T21:38:29.854Z,88.62
2023-01-23T21:43:33.568Z,88.81
2023-01-23T21:48:37.000Z,89.26
2023-01-23T21:53:41.678Z,89.80
2023-01-23T21:58:45.091Z,89.72
2023-01-23T22:03:48.174Z,88.97
2023-01-23T22:08:50.948Z,88.79
2023-01-23T22:13:54.153Z,88.49
2023-01-23T22:18:57.985Z,88.73
2023-01-23T22:24:01.465Z,89.34
2023-01-23T22:29:04.350Z,89.75
2023-01-23T22:34:07.011Z,89.60
2023-01-23T22:39:13.942Z,89.28
2023-01-23T22:44:17.371Z,89.17
2023-01-23T22:49:20.159Z,88.85
2023-01-23T22:54:22.847Z,88.68
2023-01-23T22:59:25.758Z,89.74
2023-01-23T23:04:28.450Z,89.59
2023-01-23T23:09:31.353Z,89.71
2023-01-23T23:14:34.140Z,89.69
2023-01-23T23:19:36.851Z,89.57
2023-01-23T23:24:39.533Z,89.71
2023-01-23T23:29:42.261Z,89.57
2023-01-23T23:34:45.146Z,89.81
2023-01-23T23:39:47.852Z,89.96
2023-01-23T23:44:50.552Z,89.63
2023-01-23T23:49:53.193Z,89.41
2023-01-23T23:54:55.836Z,88.86
2023-01-23T23:59:58.549Z,89.29
